Time;durP1;ratioP1;P1;durP2;ratioP2;P2;SDS_P1;SDS_P2;PMS_P1;PMS_P2;Temp;Humidity;BMP_temperature;BMP_pressure;BME280_temperature;BME280_humidity;BME280_pressure;Samples;Min_cycle;Max_cycle;Signal;HPM_P1;HPM_P2
2023/09/26 00:01:30;;;;;;;7.33;6.43;;;;;;;9.81;100.00;100761.09;5053135;28;20304;-65
2023/09/26 00:03:55;;;;;;;7.33;6.53;;;;;;;9.85;100.00;100757.53;5057988;28;20212;-64
2023/09/26 00:06:22;;;;;;;7.47;6.70;;;;;;;9.85;100.00;100750.66;5057540;28;20636;-64
2023/09/26 00:08:49;;;;;;;8.07;7.10;;;;;;;9.79;100.00;100750.91;5069457;28;20185;-63
2023/09/26 00:11:15;;;;;;;8.23;6.80;;;;;;;9.73;100.00;100742.63;5063282;28;20256;-63
2023/09/26 00:13:40;;;;;;;6.90;6.20;;;;;;;9.76;100.00;100752.75;5073373;28;20224;-64
2023/09/26 00:16:06;;;;;;;7.77;6.97;;;;;;;9.75;100.00;100754.50;5047796;28;20604;-64
2023/09/26 00:18:32;;;;;;;8.57;6.20;;;;;;;9.66;100.00;100754.84;5061849;28;20185;-64
2023/09/26 00:20:57;;;;;;;10.87;6.97;;;;;;;9.64;100.00;100754.94;5056395;28;20296;-64
2023/09/26 00:23:22;;;;;;;7.00;6.30;;;;;;;9.53;100.00;100752.78;5044336;28;20178;-64
2023/09/26 00:25:48;;;;;;;7.50;6.90;;;;;;;9.61;100.00;100749.94;5059497;28;20225;-63
2023/09/26 00:28:13;;;;;;;7.77;6.87;;;;;;;9.63;100.00;100745.53;5066705;28;20268;-63
2023/09/26 00:30:38;;;;;;;8.00;6.80;;;;;;;9.60;100.00;100753.38;5055999;28;20224;-63
2023/09/26 00:33:03;;;;;;;8.67;6.77;;;;;;;9.55;100.00;100750.19;5053567;28;20681;-63
2023/09/26 00:35:28;;;;;;;7.43;6.73;;;;;;;9.56;100.00;100751.00;5042148;28;20232;-63
2023/09/26 00:37:54;;;;;;;7.70;7.00;;;;;;;9.52;100.00;100752.84;5039918;28;20185;-63
2023/09/26 00:40:20;;;;;;;7.63;6.93;;;;;;;9.48;100.00;100748.75;5042388;28;20220;-63
2023/09/26 00:42:46;;;;;;;8.00;7.20;;;;;;;9.50;100.00;100749.50;5015984;28;20212;-64
2023/09/26 00:45:12;;;;;;;11.83;7.20;;;;;;;9.48;100.00;100751.31;5034157;28;20255;-64
2023/09/26 00:47:40;;;;;;;13.17;7.43;;;;;;;9.44;100.00;100755.72;5027992;28;20171;-63
2023/09/26 00:50:07;;;;;;;7.17;6.47;;;;;;;9.41;100.00;100752.44;5012842;28;20182;-65
2023/09/26 00:52:34;;;;;;;7.43;6.73;;;;;;;9.38;100.00;100753.41;5043486;28;20206;-63
2023/09/26 00:55:02;;;;;;;8.10;7.30;;;;;;;9.33;100.00;100751.00;5026788;28;20236;-63
2023/09/26 00:57:27;;;;;;;8.27;7.43;;;;;;;9.30;100.00;100766.53;5033864;28;20186;-64
2023/09/26 00:59:52;;;;;;;8.63;7.23;;;;;;;9.32;100.00;100759.59;5015870;28;20612;-63
2023/09/26 01:02:18;;;;;;;8.83;7.33;;;;;;;9.22;100.00;100760.03;5038272;28;20291;-64
2023/09/26 01:04:43;;;;;;;7.67;6.83;;;;;;;9.25;100.00;100760.72;5033877;28;20185;-64
2023/09/26 01:07:08;;;;;;;7.03;6.30;;;;;;;9.23;100.00;100761.69;5020381;28;20178;-63
2023/09/26 01:09:34;;;;;;;6.53;5.93;;;;;;;9.20;100.00;100766.06;5032165;28;20592;-64
2023/09/26 01:11:59;;;;;;;9.13;6.73;;;;;;;9.17;100.00;100753.31;5046558;28;20266;-64
2023/09/26 01:14:24;;;;;;;6.70;5.97;;;;;;;9.10;100.00;100751.06;5040239;28;20184;-64
2023/09/26 01:16:56;;;;;;;6.93;6.33;;;;;;;9.05;100.00;100743.53;5053127;28;20294;-64
2023/09/26 01:19:21;;;;;;;6.93;6.33;;;;;;;9.04;100.00;100747.84;5033861;28;20563;-64
2023/09/26 01:21:46;;;;;;;8.83;6.83;;;;;;;9.03;100.00;100748.72;5023812;28;20334;-64
2023/09/26 01:24:12;;;;;;;7.83;7.13;;;;;;;9.01;100.00;100747.09;5022220;28;20174;-64
2023/09/26 01:26:37;;;;;;;8.23;7.43;;;;;;;9.00;100.00;100748.00;5044441;28;20189;-63
2023/09/26 01:29:03;;;;;;;8.73;7.83;;;;;;;8.97;100.00;100746.38;5050471;28;20228;-64
2023/09/26 01:31:29;;;;;;;8.23;7.60;;;;;;;8.95;100.00;100737.06;5041140;28;20229;-64
2023/09/26 01:33:54;;;;;;;12.37;7.53;;;;;;;8.93;100.00;100744.84;5037049;28;20254;-63
2023/09/26 01:36:21;;;;;;;9.63;7.67;;;;;;;8.91;100.00;100741.47;5033177;28;20181;-63
2023/09/26 01:38:46;;;;;;;7.67;6.97;;;;;;;8.96;100.00;100737.00;5031392;28;20547;-64
2023/09/26 01:41:12;;;;;;;7.80;6.97;;;;;;;8.96;100.00;100736.19;5041047;28;20280;-64
2023/09/26 01:43:37;;;;;;;8.27;7.47;;;;;;;8.91;100.00;100735.53;5044513;28;20189;-64
2023/09/26 01:46:02;;;;;;;8.87;7.93;;;;;;;8.93;100.00;100737.13;5033052;28;20174;-64
2023/09/26 01:48:28;;;;;;;8.77;7.63;;;;;;;8.85;100.00;100732.28;5030623;28;20190;-65
2023/09/26 01:50:53;;;;;;;7.83;7.13;;;;;;;8.84;100.00;100729.78;5036258;28;20216;-62
2023/09/26 01:53:18;;;;;;;7.73;6.97;;;;;;;8.83;100.00;100731.50;5038269;28;20173;-63
2023/09/26 01:55:43;;;;;;;8.70;7.80;;;;;;;8.83;100.00;100728.09;5032725;28;20534;-63
2023/09/26 01:58:09;;;;;;;8.40;7.60;;;;;;;8.83;100.00;100725.53;5031391;28;20184;-63
2023/09/26 02:00:34;;;;;;;8.67;7.87;;;;;;;8.83;100.00;100725.53;5031386;28;20232;-63
2023/09/26 02:03:00;;;;;;;8.17;7.23;;;;;;;8.78;100.00;100728.28;5058218;28;20917;-64
2023/09/26 02:05:25;;;;;;;8.80;7.97;;;;;;;8.81;100.00;100725.59;5040300;28;20265;-64
2023/09/26 02:07:50;;;;;;;8.07;7.30;;;;;;;8.74;100.00;100726.69;5032109;28;20174;-64
2023/09/26 02:10:18;;;;;;;9.17;7.93;;;;;;;8.71;100.00;100734.53;5025863;28;20209;-66
2023/09/26 02:12:46;;;;;;;9.17;8.37;;;;;;;8.62;100.00;100732.28;5045919;28;20210;-63
2023/09/26 02:15:12;;;;;;;8.00;7.20;;;;;;;8.74;100.00;100731.00;5027916;28;20186;-64
2023/09/26 02:17:38;;;;;;;8.80;7.90;;;;;;;8.73;100.00;100730.16;5028934;28;20225;-65
2023/09/26 02:20:11;;;;;;;8.63;7.73;;;;;;;8.78;100.00;100719.75;5024125;28;20224;-64
2023/09/26 02:22:36;;;;;;;8.67;7.87;;;;;;;8.76;100.00;100717.22;5044137;28;20234;-64
2023/09/26 02:25:01;;;;;;;8.77;7.93;;;;;;;8.67;100.00;100728.66;5032536;28;20539;-64
2023/09/26 02:27:27;;;;;;;8.57;7.77;;;;;;;8.62;100.00;100722.88;5050591;28;20302;-63
2023/09/26 02:29:52;;;;;;;8.07;7.37;;;;;;;8.60;100.00;100722.09;5038088;28;20178;-63
2023/09/26 02:32:17;;;;;;;8.80;8.00;;;;;;;8.63;100.00;100724.53;5047783;28;20225;-64
2023/09/26 02:34:43;;;;;;;9.57;7.63;;;;;;;8.65;100.00;100720.19;5024910;28;20197;-64
2023/09/26 02:37:08;;;;;;;9.20;8.40;;;;;;;8.69;100.00;100719.19;5031714;28;20180;-64
2023/09/26 02:39:33;;;;;;;7.87;7.07;;;;;;;8.65;100.00;100719.38;5030917;28;20178;-63
2023/09/26 02:41:58;;;;;;;8.23;7.60;;;;;;;8.61;100.00;100717.78;5051494;28;20221;-63
2023/09/26 02:44:23;;;;;;;8.20;7.40;;;;;;;8.49;100.00;100717.34;5044945;28;20234;-63
2023/09/26 02:46:49;;;;;;;8.03;7.23;;;;;;;8.55;100.00;100713.72;5045675;28;20490;-63
2023/09/26 02:49:14;;;;;;;9.97;6.80;;;;;;;8.53;100.00;100715.50;5031929;28;20186;-63
2023/09/26 02:51:39;;;;;;;8.37;7.57;;;;;;;8.55;100.00;100711.16;5042325;28;20299;-63
2023/09/26 02:54:05;;;;;;;8.33;7.43;;;;;;;8.48;100.00;100710.53;5030197;28;20955;-63
2023/09/26 02:56:30;;;;;;;8.67;6.97;;;;;;;8.48;100.00;100707.97;5030426;28;20536;-64
2023/09/26 02:58:55;;;;;;;7.73;7.03;;;;;;;8.46;100.00;100709.78;5031938;28;20200;-63
2023/09/26 03:01:21;;;;;;;8.40;7.53;;;;;;;8.44;100.00;100713.25;5041686;28;20314;-66
2023/09/26 03:03:47;;;;;;;8.33;7.50;;;;;;;8.42;100.00;100715.84;5032490;28;20213;-64
2023/09/26 03:06:12;;;;;;;9.03;7.87;;;;;;;8.36;100.00;100713.50;5045868;28;20193;-64
2023/09/26 03:08:37;;;;;;;7.97;7.17;;;;;;;8.38;100.00;100707.47;5039990;28;20214;-63
2023/09/26 03:11:03;;;;;;;7.97;7.37;;;;;;;8.33;100.00;100704.19;5033594;28;20217;-64
2023/09/26 03:13:35;;;;;;;8.60;7.77;;;;;;;8.30;100.00;100717.13;5025888;28;20209;-64
2023/09/26 03:16:01;;;;;;;8.37;7.57;;;;;;;8.34;100.00;100708.44;5029770;28;20182;-64
2023/09/26 03:18:27;;;;;;;8.87;7.97;;;;;;;8.34;100.00;100702.50;5031781;28;20209;-64
2023/09/26 03:20:53;;;;;;;8.53;7.73;;;;;;;8.32;100.00;100696.56;5026427;28;20245;-64
2023/09/26 03:23:21;;;;;;;8.80;7.90;;;;;;;8.16;100.00;100698.84;5029849;28;20210;-64
2023/09/26 03:25:46;;;;;;;8.67;7.57;;;;;;;8.19;100.00;100697.00;5047717;28;20205;-65
2023/09/26 03:28:11;;;;;;;7.73;7.03;;;;;;;8.27;100.00;100699.28;5050804;28;20224;-64
2023/09/26 03:30:40;;;;;;;7.10;6.40;;;;;;;8.23;100.00;100703.69;5019751;28;20279;-64
2023/09/26 03:33:05;;;;;;;9.00;7.13;;;;;;;8.19;100.00;100701.31;5037671;28;20205;-65
2023/09/26 03:35:30;;;;;;;8.80;6.67;;;;;;;8.21;100.00;100705.47;5063881;28;20184;-64
2023/09/26 03:37:56;;;;;;;7.40;6.70;;;;;;;8.17;100.00;100708.19;5063782;28;20269;-65
2023/09/26 03:40:21;;;;;;;7.53;6.73;;;;;;;8.21;100.00;100707.19;5058030;28;20230;-65
2023/09/26 03:42:46;;;;;;;7.93;7.13;;;;;;;8.29;100.00;100701.81;5049002;28;20264;-64
2023/09/26 03:45:12;;;;;;;7.70;6.63;;;;;;;8.23;100.00;100702.84;5053636;28;20363;-65
2023/09/26 03:47:37;;;;;;;7.30;6.60;;;;;;;8.14;100.00;100700.63;5054566;28;20549;-70
2023/09/26 03:50:03;;;;;;;10.87;6.53;;;;;;;8.20;100.00;100708.09;5037449;28;20210;-65
2023/09/26 03:52:28;;;;;;;6.63;6.13;;;;;;;8.15;100.00;100703.13;5032118;28;20217;-65
2023/09/26 03:54:53;;;;;;;7.40;6.80;;;;;;;8.15;100.00;100698.00;5035198;28;20236;-63
2023/09/26 03:57:19;;;;;;;7.30;6.60;;;;;;;8.07;100.00;100697.44;5034899;28;20229;-64
2023/09/26 03:59:48;;;;;;;9.17;7.10;;;;;;;8.03;100.00;100693.31;5033425;28;20178;-64
2023/09/26 04:02:14;;;;;;;7.83;7.07;;;;;;;8.08;100.00;100684.56;5022852;28;20237;-64
2023/09/26 04:04:39;;;;;;;7.73;7.03;;;;;;;8.12;100.00;100692.16;5034742;28;20186;-64
2023/09/26 04:07:05;;;;;;;8.07;7.07;;;;;;;8.12;100.00;100692.97;5030310;28;20703;-64
2023/09/26 04:09:33;;;;;;;7.43;6.67;;;;;;;8.11;100.00;100696.41;5027140;28;20201;-64
2023/09/26 04:11:58;;;;;;;6.87;6.27;;;;;;;7.99;100.00;100695.13;5057648;28;20705;-64
2023/09/26 04:14:23;;;;;;;6.97;5.93;;;;;;;8.02;100.00;100695.00;5043393;28;20177;-64
2023/09/26 04:16:48;;;;;;;6.67;6.00;;;;;;;7.93;100.00;100697.09;5043295;28;20182;-65
2023/09/26 04:19:14;;;;;;;7.00;6.30;;;;;;;7.99;100.00;100697.69;5056797;28;20177;-65
2023/09/26 04:21:39;;;;;;;7.33;6.60;;;;;;;8.01;100.00;100695.94;5051294;28;20229;-65
2023/09/26 04:24:05;;;;;;;10.83;6.63;;;;;;;7.99;100.00;100696.84;5046161;28;20514;-64
2023/09/26 04:26:30;;;;;;;10.67;6.90;;;;;;;7.98;100.00;100690.91;5063386;28;20173;-64
2023/09/26 04:28:56;;;;;;;7.50;6.73;;;;;;;8.01;100.00;100688.25;5054035;28;20548;-65
2023/09/26 04:31:21;;;;;;;6.87;6.20;;;;;;;8.06;100.00;100690.63;5054330;28;20229;-66
2023/09/26 04:33:50;;;;;;;7.53;6.67;;;;;;;8.03;100.00;100689.00;5045482;28;20726;-65
2023/09/26 04:36:16;;;;;;;10.10;8.20;;;;;;;8.03;100.00;100688.19;5064714;28;20192;-65
2023/09/26 04:38:42;;;;;;;9.50;7.93;;;;;;;7.86;100.00;100691.31;5054457;28;20181;-65
2023/09/26 04:41:08;;;;;;;8.70;7.90;;;;;;;7.94;100.00;100686.78;5062726;28;20235;-65
2023/09/26 04:43:33;;;;;;;11.57;9.13;;;;;;;7.95;100.00;100690.16;5043384;28;20215;-70
2023/09/26 04:45:59;;;;;;;9.10;8.23;;;;;;;7.90;100.00;100693.72;5036026;28;20177;-64
2023/09/26 04:48:25;;;;;;;9.83;8.93;;;;;;;7.86;100.00;100686.19;5030806;28;20566;-64
2023/09/26 04:50:50;;;;;;;9.87;8.87;;;;;;;7.87;100.00;100698.94;5029481;28;20228;-63
2023/09/26 04:53:16;;;;;;;8.97;8.07;;;;;;;7.82;100.00;100695.69;5033743;28;20537;-65
2023/09/26 04:55:42;;;;;;;9.07;8.20;;;;;;;7.87;100.00;100688.69;5021399;28;20218;-64
2023/09/26 04:58:08;;;;;;;9.80;8.80;;;;;;;7.82;100.00;100695.69;5036828;28;20192;-64
2023/09/26 05:00:34;;;;;;;9.60;8.70;;;;;;;7.85;100.00;100700.72;5046845;28;20228;-65
2023/09/26 05:03:00;;;;;;;18.97;9.37;;;;;;;7.89;100.00;100693.78;5055615;28;20188;-63
2023/09/26 05:05:25;;;;;;;9.53;8.67;;;;;;;7.94;100.00;100702.16;5061541;28;20552;-64
2023/09/26 05:07:50;;;;;;;9.83;8.93;;;;;;;7.95;100.00;100692.72;5070468;28;20185;-64
2023/09/26 05:10:16;;;;;;;10.17;9.23;;;;;;;7.94;100.00;100691.91;5061500;28;20307;-64
2023/09/26 05:12:42;;;;;;;13.03;10.30;;;;;;;7.95;100.00;100705.53;5052729;28;20201;-64
2023/09/26 05:15:12;;;;;;;10.03;9.00;;;;;;;7.95;100.00;100698.69;5051999;28;20652;-64
2023/09/26 05:17:42;;;;;;;9.40;8.50;;;;;;;7.98;100.00;100693.47;5052738;28;20246;-65
2023/09/26 05:20:10;;;;;;;10.87;9.20;;;;;;;7.99;100.00;100695.13;5043389;28;20264;-64
2023/09/26 05:22:37;;;;;;;9.80;8.23;;;;;;;7.97;100.00;100701.22;5050081;28;20858;-63
2023/09/26 05:25:03;;;;;;;11.07;8.70;;;;;;;7.96;100.00;100704.66;5041491;28;20178;-64
2023/09/26 05:27:28;;;;;;;10.07;8.93;;;;;;;8.00;100.00;100706.22;5044005;28;20529;-64
2023/09/26 05:29:55;;;;;;;9.20;8.40;;;;;;;8.00;100.00;100706.22;5068061;28;20670;-65
2023/09/26 05:32:20;;;;;;;9.53;8.53;;;;;;;8.01;100.00;100698.50;5057637;28;20243;-65
2023/09/26 05:34:45;;;;;;;8.80;7.90;;;;;;;8.06;100.00;100704.28;5040919;28;20642;-64
2023/09/26 05:37:10;;;;;;;9.37;8.57;;;;;;;8.01;100.00;100711.31;5050832;28;20181;-64
2023/09/26 05:39:36;;;;;;;9.50;8.60;;;;;;;8.07;100.00;100712.81;5033947;28;20214;-66
2023/09/26 05:42:01;;;;;;;8.93;8.13;;;;;;;8.15;100.00;100715.09;5037804;28;20225;-66
2023/09/26 05:44:26;;;;;;;10.10;9.20;;;;;;;8.18;100.00;100713.25;5031770;28;20209;-65
2023/09/26 05:46:52;;;;;;;12.63;8.80;;;;;;;8.18;100.00;100715.00;5032742;28;20207;-65
2023/09/26 05:49:17;;;;;;;9.60;8.60;;;;;;;8.08;100.00;100711.91;5031758;28;20178;-65
2023/09/26 05:51:42;;;;;;;9.80;8.43;;;;;;;8.21;100.00;100710.59;5043911;28;20225;-64
2023/09/26 05:54:08;;;;;;;9.70;8.70;;;;;;;8.24;100.00;100714.78;5035653;28;20181;-65
2023/09/26 05:56:33;;;;;;;8.90;8.10;;;;;;;8.24;100.00;100715.63;5032762;28;20174;-64
2023/09/26 05:58:59;;;;;;;9.80;7.83;;;;;;;8.32;100.00;100712.81;5032609;28;20634;-64
2023/09/26 06:01:24;;;;;;;11.60;8.23;;;;;;;8.31;100.00;100707.72;5032780;28;20229;-64
2023/09/26 06:03:50;;;;;;;9.73;7.83;;;;;;;8.33;100.00;100706.75;5037330;28;20609;-64
2023/09/26 06:06:16;;;;;;;9.43;8.50;;;;;;;8.47;100.00;100714.00;5032488;28;20182;-65
2023/09/26 06:08:41;;;;;;;9.30;8.47;;;;;;;8.61;100.00;100713.50;5031949;28;20197;-65
2023/09/26 06:11:07;;;;;;;10.30;7.70;;;;;;;8.70;100.00;100710.59;5029910;28;20302;-65
2023/09/26 06:13:33;;;;;;;9.03;8.17;;;;;;;8.86;100.00;100712.59;5037908;28;20186;-64
2023/09/26 06:15:58;;;;;;;10.27;9.27;;;;;;;8.96;100.00;100705.41;5031667;28;20992;-64
2023/09/26 06:18:23;;;;;;;9.83;8.63;;;;;;;9.31;100.00;100708.31;5032482;28;20649;-65
2023/09/26 06:20:49;;;;;;;8.80;7.93;;;;;;;10.02;100.00;100713.97;5027518;28;20236;-62
2023/09/26 06:23:14;;;;;;;8.27;7.53;;;;;;;10.78;100.00;100704.72;5037454;28;20762;-63
2023/09/26 06:25:39;;;;;;;9.80;7.23;;;;;;;11.53;100.00;100700.31;5031849;28;20175;-63
2023/09/26 06:28:05;;;;;;;6.90;6.20;;;;;;;12.82;100.00;100691.19;5032306;28;20549;-69
2023/09/26 06:30:30;;;;;;;6.13;5.50;;;;;;;13.90;100.00;100697.22;5024775;28;20230;-73
2023/09/26 06:32:55;;;;;;;10.17;4.63;;;;;;;14.65;100.00;100700.47;5042768;28;20573;-72
2023/09/26 06:35:21;;;;;;;5.47;4.37;;;;;;;15.01;100.00;100701.66;5050029;28;20182;-72
2023/09/26 06:37:46;;;;;;;5.07;3.93;;;;;;;16.00;100.00;100694.44;5064095;28;20236;-73
2023/09/26 06:40:11;;;;;;;6.10;4.70;;;;;;;16.32;100.00;100698.34;5041565;28;20183;-72
2023/09/26 06:42:37;;;;;;;4.70;4.17;;;;;;;17.01;100.00;100709.06;5050039;28;20262;-69
2023/09/26 06:45:03;;;;;;;4.93;4.03;;;;;;;17.16;100.00;100704.53;5049767;28;20174;-70
2023/09/26 06:47:28;;;;;;;4.37;3.90;;;;;;;18.00;100.00;100712.22;5051454;28;20587;-72
2023/09/26 06:49:55;;;;;;;5.97;4.57;;;;;;;18.37;100.00;100698.97;5051454;28;20189;-65
2023/09/26 06:52:22;;;;;;;7.03;4.03;;;;;;;18.33;100.00;100701.94;5030026;28;20313;-64
2023/09/26 06:54:48;;;;;;;8.97;4.27;;;;;;;18.80;100.00;100710.38;5063656;28;20652;-64
2023/09/26 06:57:17;;;;;;;4.57;4.10;;;;;;;18.87;100.00;100708.13;5046424;28;20232;-65
2023/09/26 06:59:47;;;;;;;5.53;3.93;;;;;;;19.43;98.04;100709.72;5051233;28;20178;-70
2023/09/26 07:02:12;;;;;;;3.70;3.40;;;;;;;19.73;94.85;100700.28;5046092;28;20243;-67
2023/09/26 07:04:38;;;;;;;4.77;3.23;;;;;;;20.06;94.10;100703.66;5048922;28;20173;-67
2023/09/26 07:07:03;;;;;;;6.23;3.90;;;;;;;20.28;91.20;100705.25;5051466;28;20231;-67
2023/09/26 07:09:28;;;;;;;4.00;3.57;;;;;;;20.87;88.73;100707.22;5036690;28;20178;-68
2023/09/26 07:11:55;;;;;;;5.20;2.97;;;;;;;20.62;85.85;100706.72;5036499;28;20229;-68
2023/09/26 07:14:20;;;;;;;6.93;3.67;;;;;;;20.34;90.37;100703.88;5051814;28;20648;-68
2023/09/26 07:16:47;;;;;;;4.50;3.47;;;;;;;20.63;91.00;100700.53;5060014;28;20180;-69
2023/09/26 07:19:12;;;;;;;4.17;3.10;;;;;;;20.20;93.47;100704.25;5056987;28;20649;-69
2023/09/26 07:21:37;;;;;;;4.60;3.70;;;;;;;20.80;88.20;100702.53;5052458;28;20233;-69
2023/09/26 07:24:03;;;;;;;4.07;3.50;;;;;;;22.24;79.66;100707.81;5062718;28;20180;-68
2023/09/26 07:26:29;;;;;;;3.53;3.22;;;;;;;23.01;71.46;100702.25;5052851;28;20516;-68
2023/09/26 07:28:54;;;;;;;4.70;3.10;;;;;;;23.45;67.81;100698.84;5061368;28;20188;-68
2023/09/26 07:31:19;;;;;;;3.42;2.80;;;;;;;24.90;56.27;100698.19;5011181;28;20257;-67
2023/09/26 07:33:45;;;;;;;5.88;3.15;;;;;;;24.66;54.96;100702.41;5046030;28;20241;-67
2023/09/26 07:36:11;;;;;;;4.05;2.90;;;;;;;24.85;55.88;100711.00;5048901;28;20181;-67
2023/09/26 07:38:36;;;;;;;3.53;3.08;;;;;;;24.32;55.42;100703.28;5054500;28;20181;-70
2023/09/26 07:41:03;;;;;;;4.50;2.97;;;;;;;23.47;61.03;100702.16;5040582;28;20229;-63
2023/09/26 07:43:35;;;;;;;3.78;3.03;;;;;;;23.66;58.64;100709.00;5052681;28;20238;-63
2023/09/26 07:46:09;;;;;;;5.55;3.38;;;;;;;23.21;61.20;100704.75;5043712;28;20629;-64
2023/09/26 07:48:35;;;;;;;4.72;2.90;;;;;;;23.31;60.14;100707.28;5055199;28;20180;-63
2023/09/26 07:51:02;;;;;;;5.05;3.38;;;;;;;23.07;64.52;100703.47;5031707;28;20220;-64
2023/09/26 07:53:27;;;;;;;6.70;3.78;;;;;;;22.84;70.27;100717.00;5049418;28;20280;-64
2023/09/26 07:55:55;;;;;;;3.78;3.38;;;;;;;22.91;66.28;100714.63;5054330;28;20257;-64
2023/09/26 07:58:20;;;;;;;8.13;4.70;;;;;;;21.70;77.34;100707.59;5060136;28;20611;-64
2023/09/26 08:00:46;;;;;;;5.80;4.20;;;;;;;21.77;79.25;100710.47;5039738;28;20313;-64
2023/09/26 08:03:12;;;;;;;4.47;3.85;;;;;;;20.54;88.09;100712.63;5035537;28;20267;-64
2023/09/26 08:05:37;;;;;;;4.33;3.83;;;;;;;19.64;95.97;100709.72;5032201;28;20198;-66
2023/09/26 08:08:04;;;;;;;7.07;3.87;;;;;;;19.17;100.00;100715.28;5048288;28;20177;-63
2023/09/26 08:10:31;;;;;;;5.07;3.93;;;;;;;18.96;100.00;100709.19;5033880;28;20619;-64
2023/09/26 08:12:56;;;;;;;6.10;4.07;;;;;;;18.23;100.00;100712.22;5031020;28;20285;-64
2023/09/26 08:15:21;;;;;;;4.00;3.60;;;;;;;17.06;100.00;100700.94;5021107;28;20199;-65
2023/09/26 08:17:47;;;;;;;5.97;3.93;;;;;;;17.16;100.00;100704.53;5026792;28;20500;-65
2023/09/26 08:20:14;;;;;;;6.73;4.30;;;;;;;17.00;100.00;100701.41;5021342;28;20593;-64
2023/09/26 08:22:39;;;;;;;5.73;3.67;;;;;;;16.82;100.00;100712.16;5042281;28;20690;-65
2023/09/26 08:25:05;;;;;;;6.07;4.13;;;;;;;16.54;100.00;100702.88;5026160;28;20181;-63
2023/09/26 08:27:31;;;;;;;9.13;4.63;;;;;;;16.08;100.00;100705.09;5029565;28;20183;-63
2023/09/26 08:29:59;;;;;;;6.37;4.40;;;;;;;15.59;100.00;100701.44;5023707;28;20210;-64
2023/09/26 08:32:25;;;;;;;7.07;4.80;;;;;;;15.58;100.00;100699.75;5002294;28;20276;-63
2023/09/26 08:34:50;;;;;;;6.60;4.90;;;;;;;15.68;100.00;100693.94;5045630;28;20554;-63
2023/09/26 08:37:15;;;;;;;6.43;4.93;;;;;;;15.69;100.00;100693.88;5032839;28;20818;-66
2023/09/26 08:39:43;;;;;;;5.73;5.20;;;;;;;15.65;100.00;100692.41;5026953;28;20590;-65
2023/09/26 08:42:15;;;;;;;8.33;5.43;;;;;;;16.20;100.00;100684.44;5031054;28;20738;-63
2023/09/26 08:44:41;;;;;;;5.27;4.53;;;;;;;16.55;100.00;100687.16;5036337;28;20186;-63
2023/09/26 08:47:06;;;;;;;8.20;5.70;;;;;;;16.72;100.00;100677.34;5032202;28;20189;-65
2023/09/26 08:49:34;;;;;;;8.63;5.33;;;;;;;16.79;100.00;100688.97;5029765;28;20265;-65
2023/09/26 08:52:00;;;;;;;8.33;4.83;;;;;;;17.06;100.00;100685.34;5023551;28;20770;-64
2023/09/26 08:54:26;;;;;;;9.63;5.27;;;;;;;17.18;100.00;100684.47;5034533;28;20194;-65
2023/09/26 08:56:52;;;;;;;8.27;5.53;;;;;;;18.18;100.00;100690.94;5033412;28;20190;-64
2023/09/26 08:59:18;;;;;;;5.50;4.57;;;;;;;20.05;100.00;100682.91;5033285;28;20181;-64
2023/09/26 09:01:43;;;;;;;4.53;3.90;;;;;;;22.82;84.51;100684.03;5034916;28;20226;-64
2023/09/26 09:04:09;;;;;;;5.83;4.40;;;;;;;23.76;68.29;100682.63;5032028;28;20198;-62
2023/09/26 09:06:35;;;;;;;5.10;4.20;;;;;;;23.29;72.54;100678.56;5033450;28;20190;-63
2023/09/26 09:09:09;;;;;;;6.32;4.38;;;;;;;24.10;66.30;100679.22;5033685;28;20239;-64
2023/09/26 09:11:34;;;;;;;4.07;3.55;;;;;;;26.04;54.24;100685.03;5036751;28;20710;-65
2023/09/26 09:13:59;;;;;;;6.25;4.22;;;;;;;26.38;50.55;100684.72;5054886;28;20182;-65
2023/09/26 09:16:25;;;;;;;9.73;4.30;;;;;;;27.46;45.50;100679.47;5025474;28;20185;-65
2023/09/26 09:18:57;;;;;;;5.78;3.65;;;;;;;28.31;45.68;100679.16;5064613;28;20178;-65
2023/09/26 09:21:30;;;;;;;5.97;3.65;;;;;;;30.29;39.18;100693.44;5044211;28;20229;-68
2023/09/26 09:23:58;;;;;;;4.38;3.92;;;;;;;29.73;39.24;100681.97;5059813;28;20185;-63
2023/09/26 09:26:28;;;;;;;5.93;3.60;;;;;;;28.88;40.85;100677.50;5064068;28;20264;-64
2023/09/26 09:28:55;;;;;;;5.72;3.13;;;;;;;29.08;40.26;100679.50;5050712;28;20719;-64
2023/09/26 09:31:22;;;;;;;5.45;3.05;;;;;;;28.87;41.25;100672.41;5030124;28;20320;-67
2023/09/26 09:33:52;;;;;;;9.35;4.03;;;;;;;28.73;40.89;100671.44;5062566;28;20224;-64
2023/09/26 09:36:19;;;;;;;5.82;3.72;;;;;;;29.52;40.16;100670.44;5050242;28;20359;-65
2023/09/26 09:38:44;;;;;;;4.07;3.40;;;;;;;28.98;40.40;100667.38;5051075;28;20211;-64
2023/09/26 09:41:09;;;;;;;5.43;3.38;;;;;;;28.65;41.47;100670.56;5051102;28;20691;-64
2023/09/26 09:43:36;;;;;;;4.00;3.05;;;;;;;29.71;39.47;100668.91;5046657;28;20269;-64
2023/09/26 09:46:09;;;;;;;5.20;2.97;;;;;;;30.93;36.13;100672.72;5047557;28;20182;-65
2023/09/26 09:48:40;;;;;;;5.80;2.92;;;;;;;30.41;37.00;100674.06;5065778;28;20189;-65
2023/09/26 09:51:09;;;;;;;6.60;3.50;;;;;;;30.67;37.31;100675.16;5034188;28;20315;-65
2023/09/26 09:53:35;;;;;;;3.92;3.25;;;;;;;30.47;37.42;100667.13;5046136;28;20185;-64
2023/09/26 09:56:06;;;;;;;15.68;5.82;;;;;;;29.77;39.32;100668.13;5051788;28;20178;-65
2023/09/26 09:58:33;;;;;;;16.50;8.73;;;;;;;31.16;37.16;100667.00;5051219;28;20195;-66
2023/09/26 10:01:00;;;;;;;18.17;9.98;;;;;;;32.32;34.61;100672.59;5045293;28;20267;-66
2023/09/26 10:03:26;;;;;;;14.18;6.15;;;;;;;31.74;36.59;100665.47;5042853;28;20292;-64
2023/09/26 10:05:52;;;;;;;10.90;4.93;;;;;;;32.92;35.52;100668.69;5042984;28;20685;-64
2023/09/26 10:08:19;;;;;;;7.32;3.78;;;;;;;33.42;32.40;100670.50;5044160;28;20439;-64
2023/09/26 10:10:45;;;;;;;8.48;4.22;;;;;;;33.47;32.83;100675.97;5034008;28;20273;-64
2023/09/26 10:13:11;;;;;;;4.00;3.60;;;;;;;32.53;33.23;100662.63;5054531;28;20193;-64
2023/09/26 10:16:09;;;;;;;11.00;4.35;;;;;;;33.05;32.52;100667.75;5049513;28;20193;-66
2023/09/26 10:18:42;;;;;;;4.57;3.15;;;;;;;29.07;38.47;100662.75;5051852;28;20660;-64
2023/09/26 10:21:28;;;;;;;8.00;3.45;;;;;;;27.79;43.12;100650.03;5029892;28;20271;-65
2023/09/26 10:24:17;;;;;;;5.93;3.10;;;;;;;26.38;49.40;100649.59;5030878;28;20185;-63
2023/09/26 10:26:44;;;;;;;4.72;3.90;;;;;;;23.71;69.78;100649.94;5022003;28;20200;-63
2023/09/26 10:29:12;;;;;;;5.97;4.30;;;;;;;22.22;87.54;100646.06;5030403;28;20190;-63
2023/09/26 10:31:54;;;;;;;8.65;4.03;;;;;;;21.45;93.79;100639.13;5045554;28;20236;-64
2023/09/26 10:34:24;;;;;;;5.30;3.80;;;;;;;20.77;100.00;100631.38;5032040;28;20203;-63
2023/09/26 10:36:49;;;;;;;6.00;4.28;;;;;;;20.40;100.00;100621.53;5049886;28;20189;-63
2023/09/26 10:40:01;;;;;;;4.57;4.00;;;;;;;19.96;100.00;100616.63;5043175;28;20181;-62
2023/09/26 10:42:26;;;;;;;8.30;4.70;;;;;;;20.05;100.00;100620.22;5027604;28;20320;-63
2023/09/26 10:51:35;;;;;;;4.70;4.30;;;;;;;20.07;100.00;100621.75;5045686;28;20239;-63
2023/09/26 10:54:00;;;;;;;5.00;4.60;;;;;;;20.02;100.00;100607.44;5056457;28;20180;-63
2023/09/26 10:56:26;;;;;;;8.30;5.10;;;;;;;20.03;100.00;100615.13;5057262;28;20188;-63
2023/09/26 10:58:53;;;;;;;6.17;4.73;;;;;;;20.06;100.00;100614.06;5058739;28;20189;-62
2023/09/26 11:01:19;;;;;;;7.70;4.30;;;;;;;20.36;100.00;100602.69;5025888;28;20214;-65
2023/09/26 11:03:44;;;;;;;7.40;5.30;;;;;;;20.06;100.00;100614.06;5031655;28;20189;-62
2023/09/26 11:06:11;;;;;;;5.73;4.50;;;;;;;20.14;100.00;100601.97;5034505;28;20173;-64
2023/09/26 11:08:37;;;;;;;5.70;4.20;;;;;;;20.24;100.00;100607.22;5022364;28;20284;-63
2023/09/26 11:11:02;;;;;;;6.53;4.23;;;;;;;20.34;100.00;100606.41;5034136;28;20232;-64
2023/09/26 11:13:28;;;;;;;5.13;4.23;;;;;;;20.26;100.00;100600.06;5048011;28;20220;-63
2023/09/26 11:15:54;;;;;;;7.50;3.97;;;;;;;20.26;100.00;100599.25;5048878;28;20180;-63
2023/09/26 11:18:20;;;;;;;4.67;3.93;;;;;;;20.22;100.00;100608.28;5045931;28;20264;-64
2023/09/26 11:20:45;;;;;;;5.20;4.20;;;;;;;20.31;100.00;100599.66;5040459;28;20242;-63
2023/09/26 11:23:11;;;;;;;6.77;5.10;;;;;;;20.27;100.00;100590.47;5051950;28;20279;-64
2023/09/26 11:25:41;;;;;;;5.30;4.80;;;;;;;20.38;100.00;100594.72;5040569;28;20597;-65